Time;durP1;ratioP1;P1;durP2;ratioP2;P2;SDS_P1;SDS_P2;PMS_P1;PMS_P2;Temp;Humidity;BMP_temperature;BMP_pressure;BME280_temperature;BME280_humidity;BME280_pressure;Samples;Min_cycle;Max_cycle;Signal;HPM_P1;HPM_P2
2021/05/19 00:00:21;;;;;;;3.60;3.30;;;11.40;96.30;;;11.25;93.01;98115.41;5084481;28;21192;-68
2021/05/19 00:02:49;;;;;;;4.70;3.60;;;11.50;96.50;;;11.28;91.13;98115.19;5080652;28;20704;-68
2021/05/19 00:05:18;;;;;;;3.37;3.00;;;11.50;96.40;;;11.31;90.96;98114.97;5087659;28;21244;-68
2021/05/19 00:07:46;;;;;;;3.77;3.37;;;11.50;96.20;;;11.32;92.33;98120.09;5085109;28;20987;-68
2021/05/19 00:10:14;;;;;;;4.10;2.90;;;11.50;96.10;;;11.34;91.32;98118.19;5079237;28;21245;-68
2021/05/19 00:12:43;;;;;;;3.13;2.83;;;11.60;96.10;;;11.36;92.02;98118.09;5079370;28;20638;-68
2021/05/19 00:15:13;;;;;;;4.07;3.67;;;11.60;95.90;;;11.36;90.14;98118.09;5083780;28;21452;-68
2021/05/19 00:17:43;;;;;;;4.43;3.00;;;11.60;95.80;;;11.36;91.41;98116.31;5082061;28;21041;-68
2021/05/19 00:20:13;;;;;;;3.47;3.17;;;11.60;95.90;;;11.35;92.10;98112.03;5080243;28;20626;-68
2021/05/19 00:22:42;;;;;;;5.30;3.10;;;11.60;96.00;;;11.36;92.14;98118.09;5082872;28;21279;-68
2021/05/19 00:25:12;;;;;;;5.40;4.00;;;11.60;96.50;;;11.36;91.87;98108.47;5084307;28;20696;-68
2021/05/19 00:27:40;;;;;;;3.80;3.40;;;11.60;96.10;;;11.40;90.75;98114.34;5083968;28;20650;-68
2021/05/19 00:30:14;;;;;;;5.73;3.90;;;11.60;96.20;;;11.37;92.46;98112.75;5082488;28;20635;-68
2021/05/19 00:32:43;;;;;;;5.20;3.33;;;11.60;96.20;;;11.38;92.62;98110.97;5083729;28;20625;-68
2021/05/19 00:35:11;;;;;;;4.17;3.37;;;11.60;96.20;;;11.37;91.77;98115.38;5086809;28;20985;-68
2021/05/19 00:37:41;;;;;;;4.03;3.40;;;11.60;96.20;;;11.39;92.76;98116.09;5085578;28;20648;-68
2021/05/19 00:40:11;;;;;;;4.70;3.30;;;11.60;96.40;;;11.44;91.32;98116.63;5083824;28;20630;-68
2021/05/19 00:42:39;;;;;;;4.10;3.10;;;11.70;96.20;;;11.42;90.93;98118.47;5094737;28;20629;-68
2021/05/19 00:45:11;;;;;;;4.93;3.60;;;11.60;96.50;;;11.40;92.52;98119.56;5081116;28;21025;-68
2021/05/19 00:47:42;;;;;;;3.80;3.50;;;11.60;96.10;;;11.40;91.80;98116.94;5084256;28;20983;-68
2021/05/19 00:50:16;;;;;;;4.87;4.17;;;11.70;96.30;;;11.37;92.19;98115.38;5100000;27;20992;-68
2021/05/19 00:52:45;;;;;;;4.43;4.00;;;11.60;96.50;;;11.39;90.99;98117.88;5085828;28;21267;-68
2021/05/19 00:55:14;;;;;;;5.93;4.07;;;11.70;96.40;;;11.38;92.16;98110.97;5088344;28;20618;-68
2021/05/19 00:57:43;;;;;;;4.33;3.90;;;11.60;96.30;;;11.37;91.67;98114.53;5082871;28;20702;-68
2021/05/19 01:00:18;;;;;;;4.27;3.60;;;11.60;96.40;;;11.37;92.14;98117.97;5086416;28;20630;-68
2021/05/19 01:03:06;;;;;;;5.00;4.10;;;11.60;96.50;;;11.37;92.87;98115.38;5080077;28;20647;-68
2021/05/19 01:05:39;;;;;;;4.40;3.97;;;11.60;96.60;;;11.37;92.27;98111.94;5082579;28;20623;-68
2021/05/19 01:11:17;;;;;;;6.30;4.67;;;11.60;96.90;;;11.39;92.89;98112.66;5083669;28;20673;-68
2021/05/19 01:13:47;;;;;;;5.23;4.63;;;11.60;96.60;;;11.39;91.78;98115.25;5084769;28;20713;-68
2021/05/19 01:16:16;;;;;;;6.73;4.80;;;11.60;96.50;;;11.40;91.41;98109.09;5074911;28;22733;-68
2021/05/19 01:18:44;;;;;;;5.40;4.50;;;11.60;96.50;;;11.41;91.88;98110.75;5083626;28;20791;-68
2021/05/19 01:21:13;;;;;;;6.37;5.77;;;11.70;96.70;;;11.40;93.16;98111.72;5079251;28;20630;-68
2021/05/19 01:23:42;;;;;;;4.97;4.47;;;11.60;96.70;;;11.39;92.68;98113.47;5079796;28;20686;-68
2021/05/19 01:26:13;;;;;;;5.60;5.00;;;11.60;96.70;;;11.42;93.60;98120.25;5082859;28;20691;-68
2021/05/19 01:28:42;;;;;;;5.53;5.03;;;11.70;96.70;;;11.41;93.50;98106.38;5078243;28;20630;-68
2021/05/19 01:31:14;;;;;;;5.80;4.70;;;11.70;96.70;;;11.41;91.60;98114.22;5095319;28;21034;-68
2021/05/19 01:33:43;;;;;;;5.80;5.07;;;11.60;96.50;;;11.39;91.68;98112.66;5081619;28;20640;-68
2021/05/19 01:36:11;;;;;;;7.57;5.60;;;11.60;96.50;;;11.38;91.39;98113.59;5084505;28;20635;-68
2021/05/19 01:38:40;;;;;;;6.93;6.13;;;11.60;96.50;;;11.37;91.79;98104.09;5083122;28;21044;-69
2021/05/19 01:41:08;;;;;;;7.93;6.03;;;11.60;96.60;;;11.37;91.61;98104.94;5080512;28;20640;-68
2021/05/19 01:44:13;;;;;;;5.30;4.80;;;11.60;97.00;;;11.38;92.71;98108.34;5065275;28;20648;-68
2021/05/19 01:47:07;;;;;;;6.43;5.37;;;11.60;96.70;;;11.37;91.94;98115.38;5078891;28;21282;-68
2021/05/19 01:49:41;;;;;;;6.90;5.43;;;11.60;96.70;;;11.37;93.22;98112.75;5080263;28;20655;-68
2021/05/19 01:52:12;;;;;;;6.30;5.20;;;11.60;96.70;;;11.40;92.07;98104.72;5079343;28;20643;-68
2021/05/19 01:54:44;;;;;;;5.80;5.20;;;11.70;96.80;;;11.41;92.54;98103.78;5076025;28;20661;-68
2021/05/19 01:57:12;;;;;;;5.80;5.30;;;11.70;96.70;;;11.40;92.84;98114.34;5082018;28;21372;-68
2021/05/19 01:59:43;;;;;;;6.93;5.90;;;11.60;96.70;;;11.40;93.26;98114.34;5078158;28;20658;-68
2021/05/19 02:02:38;;;;;;;7.10;5.80;;;11.70;96.60;;;11.35;92.86;98112.03;5079387;28;20733;-68
2021/05/19 02:05:11;;;;;;;6.57;5.63;;;11.60;96.60;;;11.36;92.67;98113.69;5084212;28;20626;-68
2021/05/19 02:07:40;;;;;;;7.63;6.10;;;11.60;96.70;;;11.37;93.65;98114.53;5083510;28;20627;-68
2021/05/19 02:10:11;;;;;;;5.97;5.37;;;11.60;96.90;;;11.36;93.62;98115.47;5076501;28;20671;-68
2021/05/19 02:12:42;;;;;;;5.80;5.30;;;11.60;97.00;;;11.34;93.16;98112.97;5076976;28;21240;-68
2021/05/19 02:15:16;;;;;;;5.80;5.20;;;11.60;96.90;;;11.31;92.90;98113.19;5078686;28;20651;-68
2021/05/19 02:17:47;;;;;;;7.00;6.30;;;11.60;96.90;;;11.31;92.23;98114.97;5081190;28;20646;-68
2021/05/19 02:20:19;;;;;;;7.30;5.60;;;11.50;96.90;;;11.33;91.94;98116.53;5080009;28;20630;-68
2021/05/19 02:22:48;;;;;;;6.50;5.20;;;11.60;96.90;;;11.33;93.01;98113.91;5079163;28;21297;-68
2021/05/19 02:25:19;;;;;;;7.07;5.80;;;11.50;96.80;;;11.35;91.96;98114.66;5079697;28;21165;-68
2021/05/19 02:27:50;;;;;;;7.17;5.77;;;11.60;96.80;;;11.36;93.42;98118.09;5082983;28;20642;-68
2021/05/19 02:30:23;;;;;;;5.90;4.90;;;11.60;97.00;;;11.33;92.80;98119.13;5082919;28;20685;-68
2021/05/19 02:32:51;;;;;;;6.00;5.40;;;11.60;97.10;;;11.32;92.33;98117.47;5078738;28;21220;-68
2021/05/19 02:35:21;;;;;;;8.20;5.70;;;11.60;97.10;;;11.32;94.22;98116.63;5098480;28;20677;-68
2021/05/19 02:37:59;;;;;;;6.77;6.00;;;11.50;97.10;;;11.30;94.12;98121.97;5078575;28;20685;-68
2021/05/19 02:40:29;;;;;;;6.60;5.63;;;11.60;97.20;;;11.29;93.61;98127.31;5082083;28;20742;-68
2021/05/19 02:42:58;;;;;;;5.77;5.13;;;11.50;97.10;;;11.30;92.67;98131.56;5076204;28;20730;-68
2021/05/19 02:45:31;;;;;;;7.70;5.40;;;11.50;97.20;;;11.29;94.08;98135.16;5082860;28;20667;-68
2021/05/19 02:47:59;;;;;;;6.47;5.77;;;11.50;97.10;;;11.30;92.83;98129.78;5081208;28;20643;-68
2021/05/19 02:50:27;;;;;;;7.37;6.60;;;11.60;97.50;;;11.33;93.35;98131.34;5085729;28;20647;-68
2021/05/19 02:52:55;;;;;;;10.27;5.77;;;11.60;97.10;;;11.33;92.91;98126.97;5101058;28;20627;-68
2021/05/19 02:55:24;;;;;;;7.40;5.90;;;11.60;97.10;;;11.34;93.22;98126.03;5087810;28;20730;-68
2021/05/19 02:57:54;;;;;;;10.70;5.73;;;11.60;97.10;;;11.37;94.13;98132.81;5086619;28;20635;-68
2021/05/19 03:00:22;;;;;;;6.50;5.80;;;11.60;97.10;;;11.37;92.47;98120.59;5080732;28;20716;-68
2021/05/19 03:02:50;;;;;;;6.17;5.53;;;11.60;97.00;;;11.36;93.59;98126.75;5080219;28;21240;-68
2021/05/19 03:05:18;;;;;;;7.03;5.77;;;11.60;96.90;;;11.38;93.33;98137.09;5080281;28;21069;-68
2021/05/19 03:07:46;;;;;;;6.57;5.80;;;11.60;97.00;;;11.37;92.91;98130.22;5081717;28;20620;-67
2021/05/19 03:10:15;;;;;;;7.87;6.07;;;11.60;97.00;;;11.37;93.38;98143.28;5080796;28;20663;-67
2021/05/19 03:12:44;;;;;;;7.00;6.00;;;11.60;97.20;;;11.37;93.90;98145.88;5079517;28;20639;-67
2021/05/19 03:15:15;;;;;;;6.83;5.67;;;11.60;97.20;;;11.36;94.21;98138.97;5088176;28;20634;-67
2021/05/19 03:17:43;;;;;;;6.80;5.90;;;11.60;97.30;;;11.34;93.22;98146.91;5085138;28;20647;-67
2021/05/19 03:20:13;;;;;;;5.53;5.03;;;11.60;97.10;;;11.32;93.71;98142.75;5088000;28;20662;-68
2021/05/19 03:22:41;;;;;;;5.77;5.03;;;11.60;97.10;;;11.29;92.52;98143.81;5080549;28;20754;-68
2021/05/19 03:25:11;;;;;;;8.10;5.40;;;11.60;97.10;;;11.34;93.08;98151.31;5083836;28;20766;-68
2021/05/19 03:27:39;;;;;;;6.73;5.60;;;11.60;97.30;;;11.35;94.33;98148.59;5085784;28;20634;-68
2021/05/19 03:30:11;;;;;;;5.67;5.07;;;11.60;97.30;;;11.36;92.97;98150.25;5083769;28;20707;-68
2021/05/19 03:32:41;;;;;;;5.50;4.93;;;11.60;97.20;;;11.39;94.07;98152.66;5082707;28;20627;-68
2021/05/19 03:35:11;;;;;;;6.10;5.50;;;11.70;97.10;;;11.42;92.21;98149.81;5085092;28;21786;-68
2021/05/19 03:37:40;;;;;;;5.57;4.70;;;11.70;97.20;;;11.42;92.81;98157.66;5084638;28;20646;-68
2021/05/19 03:40:12;;;;;;;6.90;5.50;;;11.70;97.20;;;11.45;93.03;98159.22;5066303;28;20674;-68
2021/05/19 03:42:41;;;;;;;5.43;4.90;;;11.70;97.20;;;11.48;92.36;98164.25;5084481;28;20666;-68
2021/05/19 03:45:13;;;;;;;6.07;5.33;;;11.70;97.60;;;11.50;92.58;98172.81;5086923;28;20639;-68
2021/05/19 03:47:44;;;;;;;4.93;4.47;;;11.70;97.20;;;11.52;93.05;98171.78;5081196;28;20726;-68
2021/05/19 03:50:14;;;;;;;6.80;5.40;;;11.80;97.30;;;11.53;94.23;98177.81;5080102;28;20759;-68
2021/05/19 03:52:42;;;;;;;8.63;6.27;;;11.80;97.20;;;11.49;92.75;98177.22;5080606;28;20635;-68
2021/05/19 03:55:13;;;;;;;9.43;6.33;;;11.80;97.10;;;11.52;94.40;98179.59;5082811;28;21500;-68
2021/05/19 03:57:42;;;;;;;6.30;5.70;;;11.80;97.30;;;11.54;93.73;98179.50;5083850;28;20657;-68
2021/05/19 04:00:15;;;;;;;7.07;5.20;;;11.80;97.30;;;11.54;93.84;98179.50;5081449;28;20686;-68
2021/05/19 04:02:49;;;;;;;7.00;5.67;;;11.80;97.30;;;11.54;94.49;98182.13;5082113;28;20711;-68
2021/05/19 04:05:18;;;;;;;6.07;5.47;;;11.80;97.30;;;11.54;93.73;98179.50;5087332;28;21050;-68
2021/05/19 04:07:48;;;;;;;6.50;5.80;;;11.80;97.20;;;11.54;93.03;98180.31;5089404;28;21045;-68
2021/05/19 04:10:17;;;;;;;8.80;5.70;;;11.80;97.30;;;11.56;92.97;98191.53;5085546;28;20638;-68
2021/05/19 04:12:48;;;;;;;7.50;5.27;;;11.80;97.30;;;11.60;93.97;98189.50;5080862;28;20639;-67
2021/05/19 04:15:18;;;;;;;11.40;7.20;;;11.80;97.30;;;11.61;94.82;98191.19;5085224;28;20639;-67
2021/05/19 04:17:46;;;;;;;8.70;7.07;;;11.90;97.50;;;11.64;93.09;98188.38;5082628;28;21267;-68
2021/05/19 04:20:16;;;;;;;6.37;5.77;;;11.90;97.40;;;11.67;92.86;98194.19;5078477;28;20658;-67
2021/05/19 04:22:45;;;;;;;6.87;6.10;;;11.90;97.30;;;11.66;93.55;98189.09;5082820;28;20650;-68
2021/05/19 04:25:15;;;;;;;14.07;10.53;;;11.90;97.50;;;11.68;93.89;98201.09;5081029;28;21098;-68
2021/05/19 04:27:43;;;;;;;14.17;9.97;;;11.90;97.00;;;11.69;91.74;98197.53;5081389;28;20639;-67
2021/05/19 04:30:14;;;;;;;11.97;9.27;;;11.90;96.90;;;11.71;92.33;98200.84;5077792;28;20631;-67
2021/05/19 04:32:42;;;;;;;8.40;7.03;;;11.90;97.30;;;11.72;93.05;98205.16;5082655;28;21967;-67
2021/05/19 04:35:14;;;;;;;13.53;9.00;;;12.00;97.30;;;11.74;93.18;98207.66;5084687;28;20645;-67
2021/05/19 04:37:42;;;;;;;9.73;7.50;;;12.00;96.90;;;11.72;92.40;98215.59;5081063;28;21181;-67
2021/05/19 04:40:12;;;;;;;8.77;6.07;;;12.00;97.30;;;11.74;93.25;98213.69;5079615;28;20648;-67
2021/05/19 04:42:41;;;;;;;7.70;5.70;;;12.00;96.80;;;11.75;92.97;98210.97;5075406;28;20623;-67
2021/05/19 04:45:10;;;;;;;6.70;5.60;;;12.00;96.80;;;11.76;91.81;98211.84;5082254;28;21178;-67
2021/05/19 04:47:38;;;;;;;7.27;5.60;;;12.00;96.70;;;11.76;92.26;98217.06;5083340;28;20647;-67
2021/05/19 04:50:09;;;;;;;6.87;5.77;;;12.00;96.60;;;11.77;91.15;98213.47;5082276;28;21056;-67
2021/05/19 04:52:38;;;;;;;6.40;5.47;;;12.00;96.60;;;11.80;92.29;98219.34;5080116;28;20651;-68
2021/05/19 04:55:08;;;;;;;6.37;5.70;;;12.10;96.70;;;11.82;92.11;98227.91;5084185;28;20643;-68
2021/05/19 04:57:37;;;;;;;7.87;6.27;;;12.10;96.70;;;11.84;93.34;98231.22;5083486;28;20645;-68
2021/05/19 05:00:08;;;;;;;6.80;6.10;;;12.10;96.70;;;11.88;92.38;98232.69;5083722;28;20656;-68
2021/05/19 05:02:37;;;;;;;6.30;5.70;;;12.10;96.60;;;11.91;91.66;98231.66;5081751;28;20630;-67
2021/05/19 05:05:07;;;;;;;8.83;7.03;;;12.20;96.70;;;11.93;92.13;98235.81;5084702;28;20691;-67
2021/05/19 05:07:35;;;;;;;8.67;6.50;;;12.20;96.60;;;11.97;91.70;98232.03;5081919;28;20630;-67
2021/05/19 05:10:06;;;;;;;11.77;7.93;;;12.20;96.60;;;12.03;92.15;98236.00;5081812;28;20678;-68
2021/05/19 05:12:35;;;;;;;17.30;10.57;;;12.20;96.60;;;12.09;91.64;98236.41;5083714;28;20646;-68
2021/05/19 05:15:05;;;;;;;12.30;8.10;;;12.30;96.60;;;12.11;90.73;98239.72;5081354;28;21169;-68
2021/05/19 05:17:33;;;;;;;12.70;8.87;;;12.30;96.50;;;12.16;91.91;98248.06;5083475;28;20638;-68
2021/05/19 05:20:01;;;;;;;10.57;8.57;;;12.30;96.30;;;12.19;92.14;98244.41;5080698;28;20658;-68
2021/05/19 05:22:30;;;;;;;9.23;6.57;;;12.40;96.40;;;12.18;90.36;98245.34;5080605;28;20681;-68
2021/05/19 05:24:58;;;;;;;9.97;7.10;;;12.30;96.00;;;12.17;91.85;98249.75;5084724;28;20744;-67
2021/05/19 05:27:27;;;;;;;12.73;8.30;;;12.40;96.50;;;12.25;90.96;98257.84;5080012;28;20742;-67
2021/05/19 05:29:56;;;;;;;11.10;9.20;;;12.40;96.30;;;12.27;90.31;98256.81;5079907;28;20653;-67
2021/05/19 05:32:24;;;;;;;10.10;7.70;;;12.50;96.40;;;12.28;90.67;98258.50;5084324;28;20638;-67
2021/05/19 05:34:53;;;;;;;9.13;8.07;;;12.50;96.50;;;12.31;92.21;98255.66;5084979;28;20675;-67
2021/05/19 05:37:22;;;;;;;10.37;8.37;;;12.50;96.20;;;12.32;90.94;98259.91;5082628;28;20647;-67
2021/05/19 05:39:51;;;;;;;9.40;6.50;;;12.50;96.30;;;12.30;92.17;98255.78;5084736;28;20658;-68
2021/05/19 05:42:19;;;;;;;8.37;6.53;;;12.50;96.20;;;12.29;91.22;98265.38;5085842;28;21391;-67
2021/05/19 05:44:48;;;;;;;9.80;8.00;;;12.50;96.00;;;12.27;91.20;98262.03;5081868;28;21194;-68
2021/05/19 05:47:16;;;;;;;10.27;8.40;;;12.50;95.90;;;12.31;91.20;98262.66;5080066;28;20660;-68
2021/05/19 05:49:45;;;;;;;11.10;7.87;;;12.50;96.10;;;12.35;91.29;98275.38;5080144;28;20640;-68
2021/05/19 05:52:14;;;;;;;7.53;6.77;;;12.60;96.20;;;12.43;91.43;98265.22;5079444;28;21166;-68
2021/05/19 05:54:42;;;;;;;12.03;8.60;;;12.60;96.40;;;12.51;90.17;98264.63;5078244;28;20635;-68
2021/05/19 05:57:10;;;;;;;8.43;6.50;;;12.70;96.20;;;12.62;90.58;98264.72;5077742;28;20634;-67
2021/05/19 05:59:38;;;;;;;8.07;6.83;;;12.80;96.40;;;12.68;90.91;98265.09;5080891;28;20651;-68
2021/05/19 06:02:08;;;;;;;7.37;6.53;;;12.80;96.00;;;12.70;89.88;98265.78;5083942;28;20636;-68
2021/05/19 06:04:36;;;;;;;9.37;6.83;;;12.80;95.80;;;12.74;90.36;98269.88;5078932;28;20986;-68
2021/05/19 06:07:05;;;;;;;10.23;7.67;;;12.90;95.80;;;12.73;88.62;98270.81;5082294;28;20712;-68
2021/05/19 06:09:33;;;;;;;11.47;8.70;;;12.90;95.40;;;12.72;88.94;98261.31;5083530;28;20644;-68
2021/05/19 06:12:01;;;;;;;7.20;6.50;;;12.90;95.20;;;12.71;89.57;98264.84;5083570;28;20639;-68
2021/05/19 06:14:29;;;;;;;7.77;6.90;;;12.90;95.30;;;12.77;88.73;98270.47;5087727;28;20634;-68
2021/05/19 06:17:01;;;;;;;9.80;7.03;;;12.90;95.10;;;12.88;89.34;98269.69;5082510;28;20638;-68
2021/05/19 06:19:30;;;;;;;7.10;6.40;;;13.00;95.10;;;12.97;88.35;98269.84;5082154;28;20655;-67
2021/05/19 06:21:59;;;;;;;7.60;6.57;;;13.10;95.30;;;12.99;88.33;98278.44;5088483;28;20695;-68
2021/05/19 06:24:27;;;;;;;7.10;6.40;;;13.10;94.80;;;13.01;89.80;98271.28;5085157;28;20663;-68
2021/05/19 06:26:55;;;;;;;7.73;6.93;;;13.10;95.10;;;13.05;88.66;98274.50;5080040;28;21586;-68
2021/05/19 06:29:23;;;;;;;8.77;7.20;;;13.20;95.30;;;13.05;88.24;98272.75;5088799;28;21244;-68
2021/05/19 06:31:51;;;;;;;7.50;6.80;;;13.20;94.60;;;13.05;88.74;98275.38;5086635;28;20659;-68
2021/05/19 06:34:20;;;;;;;9.47;7.10;;;13.20;94.70;;;13.07;88.04;98270.84;5096276;28;20664;-68
2021/05/19 06:36:51;;;;;;;9.43;7.10;;;13.20;94.60;;;13.17;88.18;98277.06;5086443;28;20718;-67
2021/05/19 06:39:22;;;;;;;7.47;6.53;;;13.30;94.70;;;13.20;88.13;98279.44;5084360;28;20719;-68
2021/05/19 06:41:51;;;;;;;8.60;7.20;;;13.30;95.00;;;13.20;88.75;98282.06;5081385;28;20647;-67
2021/05/19 06:44:20;;;;;;;10.57;7.27;;;13.30;94.60;;;13.21;88.25;98275.84;5080669;28;20690;-67
2021/05/19 06:46:50;;;;;;;15.20;7.67;;;13.40;94.90;;;13.26;88.24;98276.34;5081069;28;20706;-67
2021/05/19 06:49:19;;;;;;;7.90;7.20;;;13.40;94.70;;;13.32;87.80;98275.88;5075518;28;21086;-67
2021/05/19 06:51:48;;;;;;;9.30;6.90;;;13.40;94.40;;;13.35;87.54;98280.88;5078997;28;20632;-68
2021/05/19 06:54:17;;;;;;;9.00;7.73;;;13.50;94.10;;;13.36;87.27;98279.94;5079321;28;20984;-67
2021/05/19 06:56:45;;;;;;;7.73;6.87;;;13.50;94.20;;;13.32;86.77;98278.50;5084488;28;20656;-68
2021/05/19 06:59:15;;;;;;;8.20;7.40;;;13.40;93.90;;;13.26;87.79;98281.56;5088788;28;20672;-68
2021/05/19 07:01:44;;;;;;;8.00;7.00;;;13.40;94.10;;;13.28;87.02;98284.94;5082594;28;21038;-68
2021/05/19 07:04:12;;;;;;;7.70;6.00;;;13.50;94.20;;;13.24;86.90;98284.34;5089016;28;21263;-68
2021/05/19 07:06:41;;;;;;;9.47;6.37;;;13.40;94.00;;;13.25;87.08;98278.13;5086775;28;20652;-68
2021/05/19 07:09:10;;;;;;;8.40;6.60;;;13.50;93.70;;;13.20;86.98;98280.28;5084616;28;20617;-68
2021/05/19 07:11:38;;;;;;;9.70;6.70;;;13.40;93.40;;;13.24;86.90;98284.34;5091025;28;20631;-68
2021/05/19 07:14:15;;;;;;;7.43;6.73;;;13.50;93.40;;;13.27;87.44;98283.25;5102651;28;20642;-68
2021/05/19 07:16:50;;;;;;;8.03;6.57;;;13.50;93.60;;;13.30;87.01;98285.63;5085765;28;20722;-69
2021/05/19 07:19:19;;;;;;;7.40;6.63;;;13.50;93.50;;;13.36;86.02;98290.41;5084514;28;20622;-68
2021/05/19 07:21:47;;;;;;;7.00;6.30;;;13.60;93.30;;;13.63;86.27;98301.41;5086165;28;20655;-68
2021/05/19 07:24:18;;;;;;;7.87;7.07;;;13.70;93.90;;;14.53;88.75;98304.56;5082528;28;20629;-68
2021/05/19 07:26:49;;;;;;;7.97;7.17;;;14.30;95.30;;;15.35;83.99;98303.75;5092347;28;20632;-68
2021/05/19 07:29:17;;;;;;;7.80;7.10;;;15.00;94.20;;;15.83;83.41;98297.78;5087325;28;20725;-68
2021/05/19 07:31:46;;;;;;;8.77;6.50;;;15.50;93.00;;;16.41;78.66;98302.31;5093927;28;20640;-68
2021/05/19 07:34:14;;;;;;;6.93;6.20;;;16.00;91.30;;;16.86;77.35;98302.50;5094345;28;22056;-70
2021/05/19 07:36:43;;;;;;;7.40;6.00;;;16.40;90.50;;;16.98;74.96;98304.03;5091683;28;20814;-68
2021/05/19 07:39:13;;;;;;;8.43;6.07;;;16.70;87.20;;;17.34;77.00;98312.09;5095125;28;20625;-68
2021/05/19 07:41:42;;;;;;;5.60;5.10;;;17.00;89.40;;;17.74;73.91;98310.91;5088224;28;20650;-69
2021/05/19 07:44:11;;;;;;;5.87;5.27;;;17.40;85.00;;;17.45;73.47;98303.19;5086015;28;20649;-69
2021/05/19 07:46:39;;;;;;;6.60;5.90;;;17.30;81.60;;;17.11;76.59;98294.88;5083683;28;20634;-68
2021/05/19 07:49:06;;;;;;;8.97;6.50;;;17.20;83.80;;;16.98;75.51;98293.47;5087894;28;20665;-68
2021/05/19 07:51:34;;;;;;;5.80;5.20;;;17.10;83.40;;;16.72;75.08;98295.00;5102311;28;20634;-68
2021/05/19 07:54:02;;;;;;;5.70;5.20;;;16.80;81.00;;;16.64;73.93;98291.38;5091477;28;20632;-69
2021/05/19 07:56:35;;;;;;;6.20;5.60;;;16.70;80.40;;;17.19;75.20;98294.16;5088873;28;20618;-69
2021/05/19 07:59:06;;;;;;;6.27;5.63;;;17.00;83.90;;;17.86;73.05;98295.69;5086739;28;20662;-69
2021/05/19 08:04:35;;;;;;;5.93;5.33;;;17.90;82.20;;;18.12;72.61;98287.81;5019118;28;20668;-68
2021/05/19 08:07:04;;;;;;;5.90;5.40;;;18.00;80.20;;;18.16;70.22;98293.66;5004694;28;20639;-68
2021/05/19 08:09:31;;;;;;;7.50;5.47;;;17.90;77.10;;;17.92;71.37;98282.78;5055477;28;20650;-68
2021/05/19 08:11:59;;;;;;;6.30;5.57;;;17.80;77.00;;;17.85;74.12;98281.69;5088641;28;20723;-69
2021/05/19 08:14:29;;;;;;;8.00;7.20;;;17.80;80.30;;;17.93;72.62;98281.78;5091868;28;20638;-68
2021/05/19 08:16:57;;;;;;;6.93;6.20;;;17.80;79.10;;;17.82;74.33;98281.97;5093203;28;20614;-68
2021/05/19 08:19:25;;;;;;;6.87;5.47;;;17.80;80.70;;;17.43;73.04;98290.13;5091594;28;20623;-69
2021/05/19 08:21:53;;;;;;;5.53;4.50;;;17.60;79.10;;;16.94;73.46;98286.81;5087903;28;20656;-68
2021/05/19 08:24:21;;;;;;;5.80;4.57;;;17.20;78.60;;;16.46;74.98;98289.56;5083739;28;20677;-69
2021/05/19 08:26:49;;;;;;;5.23;4.53;;;16.80;79.40;;;16.11;77.54;98286.53;5083357;28;21067;-67
2021/05/19 08:29:26;;;;;;;5.37;4.70;;;16.50;81.60;;;15.79;77.36;98293.75;5088457;28;20701;-67
2021/05/19 08:31:54;;;;;;;5.73;4.93;;;16.10;83.00;;;15.47;78.36;98278.19;5085016;28;20754;-67
2021/05/19 08:34:22;;;;;;;5.40;4.90;;;15.80;83.80;;;15.17;80.42;98278.19;5084926;28;20644;-68
2021/05/19 08:36:50;;;;;;;5.20;4.50;;;15.50;85.10;;;14.91;79.60;98282.06;5077028;28;20637;-68
2021/05/19 08:39:19;;;;;;;6.23;4.90;;;15.20;85.70;;;14.82;80.98;98288.09;5083208;28;20646;-68
2021/05/19 08:41:49;;;;;;;5.57;4.93;;;15.00;86.90;;;14.80;81.81;98290.00;5079003;28;20657;-68
2021/05/19 08:44:19;;;;;;;5.07;4.67;;;15.00;89.00;;;14.81;82.25;98286.44;5089084;28;21066;-68
2021/05/19 08:46:52;;;;;;;5.23;4.73;;;14.90;89.00;;;14.89;82.73;98284.00;5085153;28;20643;-68
2021/05/19 08:49:20;;;;;;;8.37;5.20;;;15.00;90.40;;;14.96;81.14;98279.94;5085649;28;20657;-68
2021/05/19 08:51:49;;;;;;;6.30;4.53;;;15.00;90.00;;;15.12;80.23;98280.31;5082670;28;20658;-68
2021/05/19 08:54:18;;;;;;;5.33;4.70;;;15.10;90.00;;;15.34;80.79;98285.47;5083541;28;20638;-68
2021/05/19 08:56:50;;;;;;;5.70;5.13;;;15.30;89.40;;;15.87;80.68;98295.72;5084437;28;20640;-68
2021/05/19 08:59:19;;;;;;;7.03;6.10;;;15.70;90.30;;;16.33;77.71;98281.09;5082777;28;22600;-68
2021/05/19 09:01:51;;;;;;;7.33;5.97;;;16.10;86.90;;;16.49;74.68;98282.19;5099801;28;20977;-68
2021/05/19 09:04:22;;;;;;;6.47;5.40;;;16.30;84.30;;;16.66;76.05;98277.13;5085502;28;20635;-68
2021/05/19 09:06:55;;;;;;;6.17;4.93;;;16.50;83.80;;;16.99;76.67;98284.63;5085474;28;20737;-68
2021/05/19 09:09:26;;;;;;;5.83;4.80;;;16.70;86.00;;;16.69;73.72;98266.31;5080658;28;20741;-68
2021/05/19 09:12:08;;;;;;;7.37;5.70;;;16.50;79.40;;;16.47;75.89;98267.53;5087885;28;21152;-67
2021/05/19 09:14:37;;;;;;;5.47;4.83;;;16.40;81.70;;;16.49;74.22;98263.78;5087410;28;20648;-68
2021/05/19 09:17:25;;;;;;;6.47;5.43;;;16.40;82.10;;;16.43;79.10;98269.59;5090822;28;21211;-70
2021/05/19 09:20:01;;;;;;;5.80;5.20;;;16.40;86.20;;;16.29;77.47;98263.88;5086826;28;20634;-70
2021/05/19 09:22:32;;;;;;;5.10;4.60;;;16.30;84.80;;;16.28;77.17;98264.84;5093344;28;21190;-68
2021/05/19 09:25:03;;;;;;;4.90;4.37;;;16.30;84.70;;;16.20;74.00;98259.41;5085948;28;20677;-68
2021/05/19 09:27:41;;;;;;;4.43;4.03;;;16.20;80.00;;;16.08;74.54;98263.09;5089841;28;20637;-68
2021/05/19 09:30:11;;;;;;;9.00;4.20;;;16.20;79.20;;;16.16;74.45;98252.72;5089635;28;20663;-67
2021/05/19 09:32:43;;;;;;;4.33;3.93;;;16.20;81.40;;;16.49;73.29;98255.06;5087407;28;20633;-67
2021/05/19 09:35:15;;;;;;;4.57;3.97;;;16.40;79.60;;;16.63;73.36;98258.94;5086092;28;20733;-67
2021/05/19 09:37:43;;;;;;;4.93;4.00;;;16.60;79.30;;;16.84;74.39;98256.16;5087818;28;20631;-68
2021/05/19 09:40:13;;;;;;;5.07;4.07;;;16.80;79.50;;;17.45;74.17;98258.34;5093712;28;20669;-68
2021/05/19 09:42:49;;;;;;;4.23;3.73;;;17.20;81.90;;;17.62;71.58;98258.41;5083723;28;20626;-68
2021/05/19 09:45:22;;;;;;;4.30;3.90;;;17.40;78.20;;;17.51;69.87;98255.97;5074923;28;20761;-67
2021/05/19 09:47:52;;;;;;;4.93;3.93;;;17.50;75.80;;;17.77;72.71;98263.13;5082145;28;21035;-67
2021/05/19 09:50:22;;;;;;;4.63;3.67;;;17.60;78.70;;;18.08;71.70;98252.13;5087577;28;20665;-66
2021/05/19 09:53:06;;;;;;;8.80;4.10;;;17.90;79.20;;;17.82;69.25;98254.75;5087404;28;20630;-66
2021/05/19 09:55:38;;;;;;;4.40;3.57;;;17.80;74.50;;;17.96;73.50;98255.91;5069109;28;20646;-66
2021/05/19 09:58:07;;;;;;;6.17;4.20;;;17.80;78.50;;;18.55;70.51;98261.59;5083204;28;20688;-66
2021/05/19 10:00:36;;;;;;;7.70;4.67;;;18.20;77.60;;;18.90;71.73;98262.44;5086050;28;20676;-67
2021/05/19 10:03:08;;;;;;;4.37;3.97;;;18.60;77.70;;;19.34;70.21;98261.53;5089136;28;20994;-66
2021/05/19 10:05:41;;;;;;;5.60;4.27;;;18.90;77.30;;;19.54;67.60;98248.75;5079835;28;20652;-66
2021/05/19 10:08:09;;;;;;;4.83;3.57;;;19.20;74.80;;;19.02;64.94;98251.50;5085502;28;20621;-67
2021/05/19 10:10:38;;;;;;;4.53;3.90;;;18.90;69.40;;;18.37;68.56;98250.16;5079479;28;20629;-67
2021/05/19 10:13:08;;;;;;;5.90;4.40;;;18.50;70.80;;;17.73;70.20;98250.34;5084537;28;20646;-67
2021/05/19 10:15:37;;;;;;;5.40;4.90;;;17.90;72.90;;;17.42;73.83;98256.00;5081395;28;21010;-67
2021/05/19 10:18:12;;;;;;;8.73;4.10;;;17.60;77.00;;;17.20;73.62;98266.81;5083921;28;20676;-67
2021/05/19 10:20:43;;;;;;;4.20;3.57;;;17.40;77.60;;;16.91;72.19;98265.19;5088537;28;20662;-67
2021/05/19 10:23:14;;;;;;;4.57;2.90;;;17.10;76.40;;;16.66;72.76;98255.22;5081591;28;20705;-67
2021/05/19 10:25:43;;;;;;;3.70;2.83;;;16.90;76.40;;;16.50;74.99;98259.34;5098790;28;20659;-67
2021/05/19 10:28:13;;;;;;;4.70;2.80;;;16.70;79.40;;;16.37;75.36;98249.06;5084506;28;20731;-66
2021/05/19 10:30:45;;;;;;;3.60;2.97;;;16.60;79.40;;;16.28;76.69;98246.41;5086843;28;20717;-66
2021/05/19 10:33:47;;;;;;;5.90;3.37;;;16.40;80.70;;;16.21;76.16;98243.47;5080542;28;20639;-66
2021/05/19 10:36:39;;;;;;;6.17;3.13;;;16.40;80.10;;;16.21;75.41;98238.22;5087172;28;20657;-70